createdAt,value
2022-09-16T00:00:56.491Z,98504.00
2022-09-16T00:03:32.079Z,98513.00
2022-09-16T00:06:06.957Z,98518.00
2022-09-16T00:08:41.482Z,98535.00
2022-09-16T00:11:16.832Z,98536.00
2022-09-16T00:13:47.419Z,98524.00
2022-09-16T00:16:27.243Z,98537.00
2022-09-16T00:19:05.374Z,98538.00
2022-09-16T00:21:34.905Z,98546.00
2022-09-16T00:24:07.088Z,98543.00
2022-09-16T00:26:42.715Z,98548.00
2022-09-16T00:29:12.932Z,98553.00
2022-09-16T00:31:48.142Z,98547.00
2022-09-16T00:34:17.485Z,98547.00
2022-09-16T00:36:52.697Z,98550.00
2022-09-16T00:39:27.359Z,98547.00
2022-09-16T00:41:57.843Z,98551.00
2022-09-16T00:45:04.066Z,98561.00
2022-09-16T00:48:02.727Z,98563.00
2022-09-16T00:51:03.916Z,98570.00
2022-09-16T00:53:52.354Z,98572.00
2022-09-16T00:56:27.918Z,98574.00
2022-09-16T00:59:31.660Z,98574.00
2022-09-16T01:02:19.872Z,98576.00
2022-09-16T01:05:05.068Z,98581.00
2022-09-16T01:07:53.829Z,98574.00
2022-09-16T01:10:27.313Z,98571.00
2022-09-16T01:13:08.466Z,98575.00
2022-09-16T01:16:25.959Z,98581.00
2022-09-16T01:19:29.284Z,98572.00
2022-09-16T01:22:42.941Z,98572.00
2022-09-16T01:25:55.584Z,98577.00
2022-09-16T01:29:10.364Z,98568.00
2022-09-16T01:32:14.919Z,98575.00
2022-09-16T01:35:29.661Z,98576.00
2022-09-16T01:38:46.020Z,98583.00
2022-09-16T01:42:05.989Z,98585.00
2022-09-16T01:45:16.431Z,98585.00
2022-09-16T01:48:21.429Z,98594.00
2022-09-16T01:51:29.370Z,98589.00
2022-09-16T01:54:37.859Z,98592.00
2022-09-16T01:57:56.839Z,98586.00
2022-09-16T02:00:37.928Z,98594.00
2022-09-16T02:03:30.089Z,98588.00
2022-09-16T02:06:06.761Z,98584.00
2022-09-16T02:09:02.583Z,98578.00
2022-09-16T02:11:42.671Z,98575.00
2022-09-16T02:14:28.552Z,98573.00
2022-09-16T02:17:14.077Z,98577.00
2022-09-16T02:19:59.160Z,98576.00
2022-09-16T02:22:48.348Z,98575.00
2022-09-16T02:25:21.429Z,98581.00
2022-09-16T02:27:55.893Z,98578.00
2022-09-16T02:30:25.731Z,98581.00
2022-09-16T02:33:07.423Z,98590.00
2022-09-16T02:35:40.786Z,98582.00
2022-09-16T02:38:20.806Z,98583.00
2022-09-16T02:40:57.988Z,98584.00
2022-09-16T02:43:32.582Z,98576.00
2022-09-16T02:46:41.256Z,98570.00
2022-09-16T02:49:44.172Z,98570.00
2022-09-16T02:52:41.782Z,98564.00
2022-09-16T02:55:45.272Z,98572.00
2022-09-16T02:58:14.717Z,98569.00
2022-09-16T03:00:49.547Z,98564.00
2022-09-16T03:03:20.343Z,98572.00
2022-09-16T03:06:22.904Z,98569.00
2022-09-16T03:08:55.562Z,98573.00
2022-09-16T03:12:15.124Z,98577.00
2022-09-16T03:15:15.885Z,98576.00
2022-09-16T03:18:31.428Z,98576.00
2022-09-16T03:21:47.420Z,98576.00
2022-09-16T03:25:12.894Z,98570.00
2022-09-16T03:28:10.030Z,98567.00
2022-09-16T03:31:04.427Z,98574.00
2022-09-16T03:34:08.720Z,98580.00
2022-09-16T03:36:49.451Z,98574.00
2022-09-16T03:39:19.446Z,98572.00
2022-09-16T03:41:48.716Z,98562.00
2022-09-16T03:44:18.039Z,98568.00
2022-09-16T03:46:47.784Z,98571.00
2022-09-16T03:49:17.320Z,98565.00
2022-09-16T03:51:46.455Z,98557.00
2022-09-16T03:54:15.557Z,98556.00
2022-09-16T03:56:44.739Z,98567.00
2022-09-16T03:59:14.033Z,98556.00
2022-09-16T04:01:46.563Z,98558.00
2022-09-16T04:04:16.170Z,98556.00
2022-09-16T04:06:45.474Z,98553.00
2022-09-16T04:09:15.786Z,98550.00
2022-09-16T04:11:45.803Z,98554.00
2022-09-16T04:14:15.442Z,98545.00
2022-09-16T04:16:45.480Z,98541.00
2022-09-16T04:19:15.722Z,98542.00
2022-09-16T04:21:45.020Z,98538.00
2022-09-16T04:24:14.292Z,98537.00
2022-09-16T04:26:44.578Z,98537.00
2022-09-16T04:29:14.332Z,98530.00
2022-09-16T04:31:44.019Z,98527.00
2022-09-16T04:34:13.593Z,98527.00
2022-09-16T04:36:42.926Z,98530.00
2022-09-16T04:39:13.319Z,98528.00
2022-09-16T04:41:42.864Z,98514.00
2022-09-16T04:44:13.461Z,98513.00
2022-09-16T04:46:43.406Z,98492.00
2022-09-16T04:49:13.952Z,98500.00
2022-09-16T04:51:43.259Z,98492.00
2022-09-16T04:54:13.415Z,98491.00
2022-09-16T04:56:42.612Z,98482.00
2022-09-16T04:59:12.533Z,98475.00
2022-09-16T05:01:42.732Z,98472.00
2022-09-16T05:04:12.350Z,98473.00
2022-09-16T05:06:43.821Z,98477.00
2022-09-16T05:09:14.793Z,98476.00
2022-09-16T05:11:45.197Z,98466.00
2022-09-16T05:14:18.930Z,98456.00
2022-09-16T05:16:48.712Z,98449.00
2022-09-16T05:19:18.014Z,98447.00
2022-09-16T05:21:47.369Z,98439.00
2022-09-16T05:24:16.839Z,98429.00
2022-09-16T05:26:46.447Z,98432.00
2022-09-16T05:29:18.469Z,98424.00
2022-09-16T05:31:51.761Z,98418.00
2022-09-16T05:34:29.649Z,98408.00
2022-09-16T05:36:59.033Z,98407.00
2022-09-16T05:39:28.326Z,98391.00
2022-09-16T05:42:00.695Z,98394.00
2022-09-16T05:44:32.159Z,98397.00
2022-09-16T05:47:01.479Z,98392.00
2022-09-16T05:49:30.818Z,98383.00
2022-09-16T05:52:00.081Z,98381.00
2022-09-16T05:54:29.289Z,98369.00
2022-09-16T05:56:59.765Z,98365.00
2022-09-16T05:59:30.461Z,98359.00
2022-09-16T06:02:02.947Z,98358.00
2022-09-16T06:04:32.319Z,98351.00
2022-09-16T06:07:03.182Z,98350.00
2022-09-16T06:09:33.134Z,98342.00
2022-09-16T06:12:02.527Z,98337.00
2022-09-16T06:14:32.522Z,98327.00
2022-09-16T06:17:01.815Z,98330.00
2022-09-16T06:19:31.328Z,98325.00
2022-09-16T06:22:01.257Z,98319.00
2022-09-16T06:24:30.533Z,98319.00
2022-09-16T06:26:59.730Z,98301.00
2022-09-16T06:29:28.971Z,98289.00
2022-09-16T06:31:58.393Z,98274.00
2022-09-16T06:34:28.025Z,98270.00
2022-09-16T06:36:57.269Z,98268.00
2022-09-16T06:39:26.603Z,98281.00
2022-09-16T06:41:55.898Z,98273.00
2022-09-16T06:44:25.521Z,98270.00
2022-09-16T06:46:54.828Z,98265.00
2022-09-16T06:49:23.933Z,98267.00
2022-09-16T06:51:53.212Z,98264.00
2022-09-16T06:54:22.423Z,98265.00
2022-09-16T06:56:51.714Z,98266.00
2022-09-16T06:59:20.955Z,98269.00
2022-09-16T07:01:50.187Z,98273.00
2022-09-16T07:04:19.408Z,98261.00
2022-09-16T07:07:08.648Z,98256.00
2022-09-16T07:09:37.871Z,98248.00
2022-09-16T07:12:08.227Z,98246.00
2022-09-16T07:14:37.455Z,98238.00
2022-09-16T07:17:06.890Z,98238.00
2022-09-16T07:19:36.159Z,98227.00
2022-09-16T07:22:05.469Z,98223.00
2022-09-16T07:24:34.754Z,98227.00
2022-09-16T07:27:04.098Z,98227.00
2022-09-16T07:29:33.469Z,98223.00
2022-09-16T07:32:02.839Z,98225.00
2022-09-16T07:34:32.120Z,98215.00
2022-09-16T07:37:01.564Z,98211.00
2022-09-16T07:39:31.050Z,98203.00
2022-09-16T07:42:05.180Z,98209.00
2022-09-16T07:44:35.331Z,98204.00
2022-09-16T07:47:05.571Z,98215.00
2022-09-16T07:49:34.940Z,98220.00
2022-09-16T07:52:04.400Z,98223.00
2022-09-16T07:54:33.717Z,98231.00
2022-09-16T07:57:03.041Z,98225.00
2022-09-16T07:59:32.365Z,98220.00
2022-09-16T08:02:01.713Z,98227.00
2022-09-16T08:04:31.112Z,98221.00
2022-09-16T08:07:00.305Z,98215.00
2022-09-16T08:09:50.658Z,98225.00
2022-09-16T08:12:18.804Z,98214.00
2022-09-16T08:14:48.146Z,98186.00
2022-09-16T08:17:17.381Z,98172.00
2022-09-16T08:19:46.541Z,98156.00
2022-09-16T08:22:15.817Z,98143.00
2022-09-16T08:24:44.997Z,98145.00
2022-09-16T08:27:14.204Z,98157.00
2022-09-16T08:29:43.533Z,98168.00
2022-09-16T08:32:12.837Z,98186.00
2022-09-16T08:34:42.331Z,98190.00
2022-09-16T08:37:11.852Z,98201.00
2022-09-16T08:39:41.034Z,98200.00
2022-09-16T08:42:42.449Z,98202.00
2022-09-16T08:45:49.949Z,98196.00
2022-09-16T08:48:54.428Z,98207.00
2022-09-16T08:51:25.337Z,98230.00
2022-09-16T08:54:11.528Z,98253.00
2022-09-16T08:56:44.213Z,98261.00
2022-09-16T08:59:26.287Z,98268.00
2022-09-16T09:02:22.892Z,98296.00
2022-09-16T09:04:52.789Z,98294.00
2022-09-16T09:07:58.128Z,98286.00
2022-09-16T09:11:11.466Z,98294.00
2022-09-16T09:14:28.806Z,98309.00
2022-09-16T09:17:48.165Z,98321.00
2022-09-16T09:21:02.003Z,98344.00
2022-09-16T09:24:08.644Z,98331.00
2022-09-16T09:26:59.431Z,98307.00
2022-09-16T09:30:14.713Z,98291.00
2022-09-16T09:33:41.299Z,98284.00
2022-09-16T09:36:51.502Z,98317.00
2022-09-16T09:40:12.170Z,98364.00
2022-09-16T09:43:02.733Z,98359.00
2022-09-16T09:45:55.223Z,98368.00
2022-09-16T09:48:48.811Z,98350.00
2022-09-16T09:51:38.240Z,98348.00
2022-09-16T09:54:35.426Z,98337.00
2022-09-16T09:57:23.525Z,98332.00
2022-09-16T10:00:11.378Z,98314.00
2022-09-16T10:02:49.601Z,98302.00
2022-09-16T10:05:29.720Z,98294.00
2022-09-16T10:08:33.092Z,98294.00
2022-09-16T10:11:15.864Z,98308.00
2022-09-16T10:13:59.070Z,98315.00
2022-09-16T10:16:34.827Z,98307.00
2022-09-16T10:19:21.185Z,98306.00
2022-09-16T10:22:09.249Z,98299.00
2022-09-16T10:24:44.274Z,98299.00
2022-09-16T10:27:38.468Z,98294.00
2022-09-16T10:33:13.190Z,98288.00
2022-09-16T10:35:52.545Z,98291.00
2022-09-16T10:38:26.427Z,98279.00
2022-09-16T10:41:10.037Z,98272.00
2022-09-16T10:43:47.974Z,98253.00
2022-09-16T10:46:20.605Z,98249.00
2022-09-16T10:48:53.130Z,98248.00
2022-09-16T10:51:35.743Z,98240.00
2022-09-16T10:54:07.600Z,98238.00
2022-09-16T10:56:51.992Z,98230.00
2022-09-16T10:59:21.491Z,98224.00
2022-09-16T11:02:47.504Z,98218.00
2022-09-16T11:06:08.138Z,98220.00
2022-09-16T11:09:16.186Z,98218.00
2022-09-16T11:12:36.849Z,98226.00
2022-09-16T11:15:49.567Z,98229.00
2022-09-16T11:19:02.731Z,98233.00
2022-09-16T11:22:14.807Z,98231.00
2022-09-16T11:25:23.097Z,98235.00
2022-09-16T11:28:36.407Z,98242.00
2022-09-16T11:31:31.104Z,98234.00
2022-09-16T11:34:29.590Z,98230.00
2022-09-16T11:37:24.963Z,98219.00
2022-09-16T11:40:36.647Z,98230.00
2022-09-16T11:43:47.763Z,98234.00
2022-09-16T11:46:54.880Z,98249.00
2022-09-16T11:50:06.922Z,98256.00
2022-09-16T11:53:23.366Z,98268.00
2022-09-16T11:56:44.833Z,98287.00
2022-09-16T11:59:39.468Z,98304.00
2022-09-16T12:02:41.448Z,98316.00
2022-09-16T12:05:54.543Z,98329.00
2022-09-16T12:08:52.751Z,98335.00
2022-09-16T12:11:45.597Z,98334.00
2022-09-16T12:14:36.608Z,98335.00
2022-09-16T12:17:29.445Z,98335.00
2022-09-16T12:20:19.588Z,98329.00
2022-09-16T12:23:06.861Z,98335.00
2022-09-16T12:26:26.551Z,98338.00
2022-09-16T12:29:19.967Z,98335.00
2022-09-16T12:32:15.790Z,98330.00
2022-09-16T12:35:03.879Z,98327.00
2022-09-16T12:37:56.372Z,98321.00
2022-09-16T12:41:09.414Z,98330.00
2022-09-16T12:44:34.353Z,98332.00
2022-09-16T12:47:48.599Z,98335.00
2022-09-16T12:51:02.574Z,98334.00
2022-09-16T12:54:16.321Z,98334.00
2022-09-16T12:57:21.850Z,98335.00
2022-09-16T13:00:42.761Z,98335.00
2022-09-16T13:03:25.299Z,98339.00
2022-09-16T13:05:59.512Z,98330.00
2022-09-16T13:08:35.225Z,98332.00
2022-09-16T13:12:06.680Z,98336.00
2022-09-16T13:14:29.041Z,98355.00
2022-09-16T13:17:03.265Z,98367.00
2022-09-16T13:19:54.408Z,98376.00
2022-09-16T13:23:03.152Z,98385.00
2022-09-16T13:26:09.285Z,98385.00
2022-09-16T13:28:47.908Z,98388.00
2022-09-16T13:31:33.981Z,98398.00
2022-09-16T13:34:18.215Z,98410.00
2022-09-16T13:36:47.476Z,98415.00
2022-09-16T13:39:32.454Z,98415.00
2022-09-16T13:42:22.874Z,98409.00
2022-09-16T13:44:52.897Z,98418.00
2022-09-16T13:47:41.290Z,98422.00
2022-09-16T13:50:22.377Z,98429.00
2022-09-16T13:52:54.032Z,98427.00
2022-09-16T13:55:28.018Z,98426.00
2022-09-16T13:58:23.833Z,98422.00
2022-09-16T14:01:22.676Z,98419.00
2022-09-16T14:04:30.594Z,98424.00
2022-09-16T14:07:37.184Z,98429.00
2022-09-16T14:10:42.526Z,98427.00
2022-09-16T14:13:18.833Z,98427.00
2022-09-16T14:15:59.330Z,98422.00
2022-09-16T14:18:40.286Z,98410.00
2022-09-16T14:21:22.968Z,98405.00
2022-09-16T14:26:26.772Z,98401.00
2022-09-16T14:29:06.611Z,98404.00
2022-09-16T14:31:36.238Z,98408.00
2022-09-16T14:34:11.700Z,98418.00
2022-09-16T14:36:42.581Z,98415.00
2022-09-16T14:39:22.861Z,98412.00
2022-09-16T14:42:00.224Z,98414.00
2022-09-16T14:44:54.581Z,98418.00
2022-09-16T14:47:50.600Z,98420.00
2022-09-16T14:50:31.190Z,98412.00
2022-09-16T14:53:10.195Z,98411.00
2022-09-16T14:55:41.342Z,98404.00
2022-09-16T14:58:13.646Z,98419.00
2022-09-16T15:01:10.523Z,98417.00
2022-09-16T15:04:06.620Z,98414.00
2022-09-16T15:06:45.382Z,98420.00
2022-09-16T15:09:48.654Z,98420.00
2022-09-16T15:12:45.967Z,98420.00
2022-09-16T15:15:36.983Z,98419.00
2022-09-16T15:18:42.612Z,98416.00
2022-09-16T15:21:34.306Z,98427.00
2022-09-16T15:24:16.740Z,98429.00
2022-09-16T15:26:49.082Z,98438.00
2022-09-16T15:29:48.563Z,98450.00
2022-09-16T15:32:23.553Z,98449.00
2022-09-16T15:35:20.305Z,98460.00
2022-09-16T15:37:52.529Z,98452.00
2022-09-16T15:40:34.879Z,98451.00
2022-09-16T15:43:42.017Z,98453.00
2022-09-16T15:46:29.883Z,98459.00
2022-09-16T15:49:03.464Z,98456.00
2022-09-16T15:51:52.720Z,98461.00
2022-09-16T15:55:00.280Z,98466.00
2022-09-16T15:57:43.403Z,98472.00
2022-09-16T16:00:17.149Z,98469.00
2022-09-16T16:02:59.754Z,98480.00
2022-09-16T16:05:37.581Z,98479.00
2022-09-16T16:08:09.916Z,98483.00
2022-09-16T16:10:41.845Z,98488.00
2022-09-16T16:13:11.075Z,98486.00
2022-09-16T16:15:42.203Z,98488.00
2022-09-16T16:18:11.782Z,98489.00
2022-09-16T16:20:41.460Z,98491.00
2022-09-16T16:23:12.555Z,98491.00
2022-09-16T16:25:42.063Z,98488.00
2022-09-16T16:28:12.002Z,98482.00
2022-09-16T16:30:42.229Z,98474.00
2022-09-16T16:33:11.509Z,98479.00
2022-09-16T16:35:40.622Z,98468.00
2022-09-16T16:38:12.721Z,98465.00
2022-09-16T16:40:51.859Z,98458.00
2022-09-16T16:43:21.027Z,98454.00
2022-09-16T16:46:05.170Z,98454.00
2022-09-16T16:48:35.263Z,98444.00
2022-09-16T16:51:09.864Z,98440.00
2022-09-16T16:53:40.030Z,98441.00
2022-09-16T16:56:15.796Z,98438.00
2022-09-16T16:58:45.150Z,98444.00
2022-09-16T17:01:21.721Z,98431.00
2022-09-16T17:03:51.351Z,98439.00
2022-09-16T17:06:20.961Z,98440.00
2022-09-16T17:08:50.437Z,98436.00
2022-09-16T17:11:22.137Z,98431.00
2022-09-16T17:13:54.334Z,98427.00
2022-09-16T17:16:26.743Z,98430.00
2022-09-16T17:18:57.531Z,98428.00
2022-09-16T17:21:32.404Z,98426.00
2022-09-16T17:24:02.320Z,98423.00
2022-09-16T17:26:31.563Z,98421.00
2022-09-16T17:29:06.485Z,98427.00
2022-09-16T17:31:41.947Z,98418.00
2022-09-16T17:34:17.282Z,98421.00
2022-09-16T17:36:48.356Z,98419.00
2022-09-16T17:39:22.992Z,98424.00
2022-09-16T17:41:52.783Z,98428.00
2022-09-16T17:44:24.309Z,98421.00
2022-09-16T17:46:54.294Z,98417.00
2022-09-16T17:49:25.754Z,98416.00
2022-09-16T17:51:55.492Z,98419.00
2022-09-16T17:54:24.977Z,98421.00
2022-09-16T17:56:54.143Z,98415.00
2022-09-16T17:59:23.467Z,98412.00
2022-09-16T18:01:52.764Z,98410.00
2022-09-16T18:04:22.086Z,98403.00
2022-09-16T18:06:52.195Z,98394.00
2022-09-16T18:09:21.380Z,98399.00
2022-09-16T18:11:50.612Z,98391.00
2022-09-16T18:14:23.302Z,98387.00
2022-09-16T18:16:53.129Z,98372.00
2022-09-16T18:19:22.497Z,98367.00
2022-09-16T18:21:51.626Z,98360.00
2022-09-16T18:24:21.131Z,98353.00
2022-09-16T18:26:50.555Z,98351.00
2022-09-16T18:29:20.009Z,98346.00
2022-09-16T18:31:50.926Z,98340.00
2022-09-16T18:34:20.593Z,98332.00
2022-09-16T18:36:50.044Z,98334.00
2022-09-16T18:39:19.555Z,98335.00
2022-09-16T18:41:48.933Z,98331.00
2022-09-16T18:44:25.279Z,98321.00
2022-09-16T18:46:56.036Z,98312.00
2022-09-16T18:49:27.514Z,98312.00
2022-09-16T18:51:57.237Z,98312.00
2022-09-16T18:54:30.701Z,98322.00
2022-09-16T18:57:02.879Z,98310.00
2022-09-16T18:59:35.203Z,98311.00
2022-09-16T19:02:06.526Z,98309.00
2022-09-16T19:04:42.719Z,98305.00
2022-09-16T19:07:15.626Z,98303.00
2022-09-16T19:09:47.859Z,98303.00
2022-09-16T19:12:17.092Z,98308.00
2022-09-16T19:14:46.260Z,98318.00
2022-09-16T19:17:15.590Z,98313.00
2022-09-16T19:19:44.748Z,98318.00
2022-09-16T19:22:13.860Z,98311.00
2022-09-16T19:24:44.571Z,98306.00
2022-09-16T19:27:14.124Z,98313.00
2022-09-16T19:29:43.808Z,98307.00
2022-09-16T19:32:13.495Z,98305.00
2022-09-16T19:34:42.972Z,98304.00
2022-09-16T19:37:12.234Z,98309.00
2022-09-16T19:39:42.035Z,98311.00
2022-09-16T19:42:12.199Z,98306.00
2022-09-16T19:44:41.910Z,98309.00
2022-09-16T19:47:12.977Z,98307.00
2022-09-16T19:49:45.312Z,98313.00
2022-09-16T19:52:14.641Z,98306.00
2022-09-16T19:54:43.890Z,98305.00
2022-09-16T19:57:13.182Z,98300.00
2022-09-16T19:59:43.871Z,98316.00
2022-09-16T20:02:13.559Z,98317.00
2022-09-16T20:04:42.886Z,98309.00
2022-09-16T20:07:17.889Z,98312.00
2022-09-16T20:09:49.211Z,98319.00
2022-09-16T20:12:18.362Z,98322.00
2022-09-16T20:14:47.680Z,98326.00
2022-09-16T20:17:16.870Z,98324.00
2022-09-16T20:19:46.096Z,98324.00
2022-09-16T20:22:15.280Z,98326.00
2022-09-16T20:24:44.982Z,98326.00
2022-09-16T20:27:14.213Z,98330.00
2022-09-16T20:29:43.368Z,98326.00
2022-09-16T20:32:12.686Z,98325.00
2022-09-16T20:34:42.470Z,98329.00
2022-09-16T20:37:11.665Z,98341.00
2022-09-16T20:39:42.331Z,98339.00
2022-09-16T20:42:11.542Z,98340.00
2022-09-16T20:44:40.866Z,98333.00
2022-09-16T20:47:10.876Z,98338.00
2022-09-16T20:49:40.049Z,98335.00
2022-09-16T20:52:10.246Z,98344.00
2022-09-16T20:54:39.552Z,98338.00
2022-09-16T20:57:08.701Z,98338.00
2022-09-16T20:59:37.918Z,98343.00
2022-09-16T21:02:07.395Z,98341.00
2022-09-16T21:04:36.593Z,98342.00
2022-09-16T21:07:05.814Z,98349.00
2022-09-16T21:09:35.480Z,98355.00
2022-09-16T21:12:05.865Z,98361.00
2022-09-16T21:14:35.878Z,98355.00
2022-09-16T21:17:05.208Z,98355.00
2022-09-16T21:19:37.461Z,98355.00
2022-09-16T21:22:06.881Z,98355.00
2022-09-16T21:24:36.159Z,98354.00
2022-09-16T21:27:05.615Z,98353.00
2022-09-16T21:29:34.792Z,98351.00
2022-09-16T21:32:04.826Z,98356.00
2022-09-16T21:34:34.015Z,98363.00
2022-09-16T21:37:06.183Z,98372.00
2022-09-16T21:39:35.526Z,98365.00
2022-09-16T21:42:04.864Z,98367.00
2022-09-16T21:44:34.323Z,98370.00
2022-09-16T21:47:12.243Z,98366.00
2022-09-16T21:49:42.139Z,98365.00
2022-09-16T21:52:11.618Z,98356.00
2022-09-16T21:54:41.009Z,98359.00
2022-09-16T21:57:11.643Z,98351.00
2022-09-16T21:59:40.820Z,98359.00
2022-09-16T22:02:10.301Z,98363.00
2022-09-16T22:04:39.556Z,98365.00
2022-09-16T22:07:11.975Z,98359.00
2022-09-16T22:09:41.154Z,98367.00
2022-09-16T22:12:10.334Z,98362.00
2022-09-16T22:14:39.700Z,98369.00
2022-09-16T22:17:08.921Z,98375.00
2022-09-16T22:19:38.256Z,98375.00
2022-09-16T22:22:07.541Z,98373.00
2022-09-16T22:24:37.169Z,98378.00
2022-09-16T22:27:06.537Z,98377.00
2022-09-16T22:29:35.801Z,98372.00
2022-09-16T22:32:05.088Z,98377.00
2022-09-16T22:34:36.842Z,98387.00
2022-09-16T22:37:06.151Z,98387.00
2022-09-16T22:39:35.360Z,98391.00
2022-09-16T22:42:04.653Z,98384.00
2022-09-16T22:44:33.905Z,98388.00
2022-09-16T22:47:03.967Z,98387.00
2022-09-16T22:49:33.226Z,98392.00
2022-09-16T22:52:02.457Z,98392.00
2022-09-16T22:54:32.154Z,98388.00
2022-09-16T22:57:01.390Z,98399.00
2022-09-16T22:59:30.577Z,98401.00
2022-09-16T23:01:59.949Z,98403.00
2022-09-16T23:04:29.354Z,98398.00
2022-09-16T23:06:58.661Z,98404.00
2022-09-16T23:09:27.864Z,98399.00
2022-09-16T23:11:57.010Z,98413.00
2022-09-16T23:14:27.641Z,98415.00
2022-09-16T23:16:57.081Z,98419.00
2022-09-16T23:19:26.352Z,98424.00
2022-09-16T23:21:55.616Z,98427.00
2022-09-16T23:24:24.899Z,98420.00
2022-09-16T23:26:54.077Z,98433.00
2022-09-16T23:29:23.303Z,98434.00
2022-09-16T23:31:52.490Z,98439.00
2022-09-16T23:34:23.533Z,98445.00
2022-09-16T23:36:52.831Z,98446.00
2022-09-16T23:39:22.359Z,98455.00
2022-09-16T23:41:52.314Z,98462.00
2022-09-16T23:44:23.423Z,98461.00
2022-09-16T23:46:53.092Z,98466.00
2022-09-16T23:49:22.356Z,98469.00
2022-09-16T23:51:51.588Z,98467.00
2022-09-16T23:54:21.269Z,98464.00
2022-09-16T23:56:50.439Z,98472.00
2022-09-16T23:59:19.788Z,98477.00
